KCTZ

Clinton-Sampson County Airport

Clinton, North Carolina, USA
METAR KCTZ 230120Z AUTO 00000KT 10SM CLR 08/06 A3027 RMK AO2 T00830063
Observed Flight Rules
Oct-23 @ 01:20 UTC (18 minutes ago) Visual Flight Rules
Visibility Clouds
10 miles
  • Clear skies
Temperatures Readings
Current 8°C / 46°F
Dewpoint 6°C / 43°F
Humidity 87%
Altimeter 30.27" Hg
Pressure 1025 hPa
Elevation 45
METAR KCTZ 230120Z AUTO 00000KT 10SM CLR 08/06 A3027 RMK AO2 T00830063
Observed Flight Rules
Oct-23 @ 01:20 UTC
(18 minutes ago)
VFR
Clouds
  • Clear skies
Temperature Dewpoint
8°C / 46°F 6°C / 43°F
Humidity Altimeter Pressure
87% 30.27" Hg 1025 hPa